createdAt,value
2019-01-23T00:00:31.492Z,74.58
2019-01-23T00:02:59.870Z,74.46
2019-01-23T00:05:28.330Z,75.16
2019-01-23T00:07:56.707Z,74.45
2019-01-23T00:10:25.096Z,73.92
2019-01-23T00:12:53.471Z,73.61
2019-01-23T00:15:21.855Z,73.57
2019-01-23T00:17:50.229Z,73.88
2019-01-23T00:20:18.618Z,73.87
2019-01-23T00:22:46.996Z,75.10
2019-01-23T00:25:15.491Z,75.17
2019-01-23T00:27:43.867Z,75.86
2019-01-23T00:30:14.301Z,76.25
2019-01-23T00:32:42.688Z,75.57
2019-01-23T00:35:11.144Z,75.41
2019-01-23T00:37:39.523Z,75.12
2019-01-23T00:40:15.829Z,74.82
2019-01-23T00:42:44.375Z,75.24
2019-01-23T00:45:16.439Z,75.38
2019-01-23T00:47:44.881Z,75.73
2019-01-23T00:50:14.912Z,75.16
2019-01-23T00:52:44.017Z,75.72
2019-01-23T00:55:17.033Z,75.58
2019-01-23T00:57:45.409Z,75.86
2019-01-23T01:00:19.981Z,76.21
2019-01-23T01:02:48.628Z,76.38
2019-01-23T01:05:17.656Z,76.25
2019-01-23T01:07:46.083Z,76.58
2019-01-23T01:10:17.015Z,76.86
2019-01-23T01:12:45.392Z,76.17
2019-01-23T01:15:14.075Z,75.40
2019-01-23T01:17:42.526Z,75.27
2019-01-23T01:20:15.446Z,75.24
2019-01-23T01:22:43.903Z,75.29
2019-01-23T01:25:17.772Z,75.33
2019-01-23T01:27:46.331Z,75.17
2019-01-23T01:30:17.365Z,75.51
2019-01-23T01:32:45.737Z,76.28
2019-01-23T01:35:14.123Z,76.38
2019-01-23T01:37:42.566Z,76.27
2019-01-23T01:40:13.299Z,76.16
2019-01-23T01:42:41.678Z,77.08
2019-01-23T01:45:11.599Z,77.26
2019-01-23T01:47:39.975Z,77.05
2019-01-23T01:50:11.371Z,77.15
2019-01-23T01:52:39.821Z,77.30
2019-01-23T01:55:09.943Z,77.98
2019-01-23T01:57:38.324Z,77.88
2019-01-23T02:00:13.053Z,77.14
2019-01-23T02:02:41.427Z,77.34
2019-01-23T02:05:09.979Z,77.10
2019-01-23T02:07:38.355Z,77.04
2019-01-23T02:10:10.284Z,76.92
2019-01-23T02:12:38.664Z,76.79
2019-01-23T02:15:09.491Z,76.36
2019-01-23T02:17:37.873Z,76.22
2019-01-23T02:20:15.678Z,76.60
2019-01-23T02:22:44.128Z,76.83
2019-01-23T02:25:12.752Z,75.87
2019-01-23T02:27:41.984Z,75.97
2019-01-23T02:30:16.527Z,76.57
2019-01-23T02:32:44.989Z,77.11
2019-01-23T02:35:13.479Z,77.73
2019-01-23T02:37:41.950Z,78.28
2019-01-23T02:40:16.144Z,78.28
2019-01-23T02:42:44.518Z,77.99
2019-01-23T02:45:13.344Z,78.56
2019-01-23T02:47:41.724Z,78.42
2019-01-23T02:50:12.245Z,78.07
2019-01-23T02:52:40.632Z,77.78
2019-01-23T02:55:10.746Z,77.89
2019-01-23T02:57:39.131Z,78.36
2019-01-23T03:00:10.561Z,77.99
2019-01-23T03:02:38.956Z,77.77
2019-01-23T03:05:10.771Z,78.66
2019-01-23T03:07:39.160Z,79.61
2019-01-23T03:10:10.680Z,80.41
2019-01-23T03:12:39.116Z,81.05
2019-01-23T03:15:10.538Z,80.81
2019-01-23T03:17:38.920Z,81.03
2019-01-23T03:20:12.334Z,80.41
2019-01-23T03:22:40.720Z,80.92
2019-01-23T03:25:11.236Z,80.68
2019-01-23T03:27:39.625Z,80.63
2019-01-23T03:30:14.051Z,80.40
2019-01-23T03:32:42.451Z,80.40
2019-01-23T03:35:10.955Z,80.16
2019-01-23T03:37:39.352Z,80.69
2019-01-23T03:40:10.777Z,80.75
2019-01-23T03:42:39.175Z,80.77
2019-01-23T03:45:09.788Z,81.44
2019-01-23T03:47:38.249Z,81.31
2019-01-23T03:50:10.092Z,81.68
2019-01-23T03:52:38.474Z,81.65
2019-01-23T03:55:08.979Z,82.12
2019-01-23T03:57:37.433Z,81.77
2019-01-23T04:00:08.998Z,81.25
2019-01-23T04:02:37.388Z,81.44
2019-01-23T04:05:08.612Z,81.04
2019-01-23T04:07:36.995Z,80.00
2019-01-23T04:10:08.428Z,79.52
2019-01-23T04:12:36.853Z,79.19
2019-01-23T04:15:07.890Z,79.37
2019-01-23T04:17:36.276Z,79.59
2019-01-23T04:20:10.296Z,79.29
2019-01-23T04:22:38.690Z,79.42
2019-01-23T04:25:09.002Z,79.55
2019-01-23T04:27:37.391Z,80.12
2019-01-23T04:30:11.868Z,80.55
2019-01-23T04:32:40.250Z,81.11
2019-01-23T04:35:08.752Z,81.29
2019-01-23T04:37:37.095Z,81.18
2019-01-23T04:40:08.510Z,81.67
2019-01-23T04:42:36.912Z,81.66
2019-01-23T04:45:08.428Z,82.20
2019-01-23T04:47:36.824Z,82.69
2019-01-23T04:50:08.052Z,82.31
2019-01-23T04:52:41.010Z,81.85
2019-01-23T04:55:09.478Z,82.47
2019-01-23T04:57:37.929Z,82.68
2019-01-23T05:00:10.237Z,83.16
2019-01-23T05:02:38.608Z,83.28
2019-01-23T05:05:08.536Z,83.14
2019-01-23T05:07:36.914Z,83.04
2019-01-23T05:10:07.026Z,82.89
2019-01-23T05:12:35.407Z,82.68
2019-01-23T05:15:04.969Z,82.28
2019-01-23T05:17:33.348Z,82.28
2019-01-23T05:20:01.731Z,82.06
2019-01-23T05:22:30.130Z,81.08
2019-01-23T05:24:58.627Z,81.23
2019-01-23T05:27:27.004Z,81.07
2019-01-23T05:29:55.401Z,81.46
2019-01-23T05:32:23.783Z,81.95
2019-01-23T05:34:52.251Z,81.74
2019-01-23T05:37:20.651Z,81.62
2019-01-23T05:39:49.051Z,81.78
2019-01-23T05:42:17.429Z,82.10
2019-01-23T05:44:45.941Z,82.32
2019-01-23T05:47:14.341Z,82.61
2019-01-23T05:49:42.734Z,82.68
2019-01-23T05:52:11.112Z,82.78
2019-01-23T05:54:39.524Z,82.89
2019-01-23T05:57:07.927Z,83.31
2019-01-23T05:59:36.358Z,83.39
2019-01-23T06:02:04.828Z,83.22
2019-01-23T06:04:33.268Z,82.95
2019-01-23T06:07:01.662Z,83.01
2019-01-23T06:09:30.078Z,82.84
2019-01-23T06:11:58.438Z,82.91
2019-01-23T06:14:26.862Z,83.14
2019-01-23T06:16:55.272Z,83.18
2019-01-23T06:19:23.659Z,83.19
2019-01-23T06:21:52.035Z,82.94
2019-01-23T06:24:20.426Z,82.94
2019-01-23T06:26:48.798Z,83.38
2019-01-23T06:29:17.266Z,83.38
2019-01-23T06:31:45.653Z,83.82
2019-01-23T06:34:14.039Z,83.78
2019-01-23T06:36:42.425Z,84.19
2019-01-23T06:39:10.802Z,83.88
2019-01-23T06:41:39.182Z,83.85
2019-01-23T06:44:07.566Z,84.19
2019-01-23T06:46:35.952Z,84.21
2019-01-23T06:49:04.512Z,84.05
2019-01-23T06:51:33.159Z,84.05
2019-01-23T06:54:01.552Z,83.50
2019-01-23T06:56:29.944Z,83.04
2019-01-23T06:58:58.321Z,83.04
2019-01-23T07:01:26.708Z,83.24
2019-01-23T07:03:55.083Z,83.30
2019-01-23T07:06:23.467Z,83.01
2019-01-23T07:08:51.902Z,83.06
2019-01-23T07:11:20.292Z,82.38
2019-01-23T07:13:48.673Z,82.50
2019-01-23T07:16:17.059Z,82.52
2019-01-23T07:18:45.977Z,83.20
2019-01-23T07:21:14.403Z,83.52
2019-01-23T07:23:42.781Z,83.42
2019-01-23T07:26:11.171Z,83.75
2019-01-23T07:28:39.566Z,83.53
2019-01-23T07:31:07.958Z,83.22
2019-01-23T07:33:36.335Z,83.54
2019-01-23T07:36:04.730Z,83.22
2019-01-23T07:38:33.116Z,82.74
2019-01-23T07:41:01.504Z,82.17
2019-01-23T07:43:29.883Z,82.36
2019-01-23T07:45:58.271Z,82.47
2019-01-23T07:48:26.641Z,82.94
2019-01-23T07:50:55.052Z,82.62
2019-01-23T07:53:23.426Z,82.05
2019-01-23T07:55:51.830Z,81.44
2019-01-23T07:58:20.210Z,80.87
2019-01-23T08:00:48.589Z,80.56
2019-01-23T08:03:16.977Z,80.93
2019-01-23T08:05:45.358Z,81.49
2019-01-23T08:08:13.748Z,81.52
2019-01-23T08:10:42.128Z,82.08
2019-01-23T08:13:10.569Z,81.91
2019-01-23T08:15:38.896Z,82.67
2019-01-23T08:18:07.453Z,82.25
2019-01-23T08:20:35.833Z,82.02
2019-01-23T08:23:04.289Z,81.64
2019-01-23T08:25:32.671Z,81.99
2019-01-23T08:28:01.055Z,81.74
2019-01-23T08:30:29.433Z,81.69
2019-01-23T08:32:57.829Z,81.55
2019-01-23T08:35:26.802Z,82.08
2019-01-23T08:37:55.263Z,81.73
2019-01-23T08:40:23.731Z,81.18
2019-01-23T08:42:52.283Z,81.41
2019-01-23T08:45:20.666Z,81.34
2019-01-23T08:47:49.054Z,80.89
2019-01-23T08:50:26.428Z,80.64
2019-01-23T08:52:55.085Z,80.61
2019-01-23T08:55:23.548Z,80.26
2019-01-23T08:57:51.940Z,80.03
2019-01-23T09:00:20.386Z,80.01
2019-01-23T09:02:48.778Z,81.08
2019-01-23T09:05:17.220Z,81.08
2019-01-23T09:07:45.769Z,80.20
2019-01-23T09:10:28.069Z,79.81
2019-01-23T09:12:56.457Z,80.51
2019-01-23T09:15:24.912Z,80.63
2019-01-23T09:18:33.213Z,80.48
2019-01-23T09:21:01.595Z,80.51
2019-01-23T09:23:29.979Z,79.92
2019-01-23T09:26:31.826Z,79.84
2019-01-23T09:32:01.933Z,79.83
2019-01-23T09:35:08.902Z,79.85
2019-01-23T09:38:17.257Z,80.08
2019-01-23T09:41:25.546Z,79.88
2019-01-23T09:44:33.891Z,79.07
2019-01-23T09:47:42.189Z,78.88
2019-01-23T09:50:49.152Z,79.16
2019-01-23T09:53:57.460Z,78.95
2019-01-23T09:56:25.838Z,79.13
2019-01-23T09:58:54.223Z,77.83
2019-01-23T10:01:22.600Z,78.13
2019-01-23T10:03:51.037Z,78.35
2019-01-23T10:06:19.508Z,77.24
2019-01-23T10:08:47.901Z,77.37
2019-01-23T10:11:16.282Z,76.71
2019-01-23T10:13:44.668Z,76.80
2019-01-23T10:16:13.048Z,76.16
2019-01-23T10:18:41.435Z,76.04
2019-01-23T10:21:09.819Z,75.86
2019-01-23T10:23:38.445Z,75.88
2019-01-23T10:26:06.848Z,75.35
2019-01-23T10:28:35.259Z,75.35
2019-01-23T10:31:06.686Z,75.60
2019-01-23T10:33:33.739Z,74.74
2019-01-23T10:36:02.131Z,75.04
2019-01-23T10:38:30.509Z,72.92
2019-01-23T10:40:58.896Z,72.81
2019-01-23T10:43:27.447Z,73.99
2019-01-23T10:45:55.831Z,72.42
2019-01-23T10:48:24.212Z,71.27
2019-01-23T10:50:52.600Z,69.64
2019-01-23T10:53:20.971Z,70.12
2019-01-23T10:55:49.364Z,69.93
2019-01-23T10:58:17.740Z,69.60
2019-01-23T11:00:46.130Z,69.26
2019-01-23T11:03:14.513Z,69.94
2019-01-23T11:05:42.895Z,70.58
2019-01-23T11:08:11.327Z,70.58
2019-01-23T11:10:40.628Z,71.87
2019-01-23T11:13:09.005Z,71.86
2019-01-23T11:15:37.492Z,71.95
2019-01-23T11:18:06.480Z,72.43
2019-01-23T11:20:34.968Z,71.45
2019-01-23T11:23:03.415Z,71.22
2019-01-23T11:25:31.925Z,70.08
2019-01-23T11:28:00.347Z,70.87
2019-01-23T11:30:28.879Z,71.42
2019-01-23T11:32:57.660Z,72.18
2019-01-23T11:35:26.629Z,71.47
2019-01-23T11:37:55.709Z,70.50
2019-01-23T11:40:29.442Z,69.87
2019-01-23T11:42:57.952Z,69.33
2019-01-23T11:45:26.889Z,70.12
2019-01-23T11:47:55.414Z,69.60
2019-01-23T11:50:23.790Z,69.67
2019-01-23T11:52:52.303Z,69.96
2019-01-23T11:55:20.756Z,70.28
2019-01-23T11:57:49.310Z,69.94
2019-01-23T12:00:23.929Z,69.84
2019-01-23T12:02:52.296Z,70.12
2019-01-23T12:05:22.327Z,69.77
2019-01-23T12:07:51.351Z,70.58
2019-01-23T12:10:22.352Z,69.59
2019-01-23T12:12:51.068Z,69.93
2019-01-23T12:15:21.399Z,70.38
2019-01-23T12:17:49.798Z,70.66
2019-01-23T12:20:18.631Z,71.44
2019-01-23T12:22:47.181Z,71.84
2019-01-23T12:25:15.733Z,72.20
2019-01-23T12:27:44.115Z,71.96
2019-01-23T12:30:23.884Z,71.78
2019-01-23T12:32:52.342Z,71.07
2019-01-23T12:35:20.720Z,70.54
2019-01-23T12:37:49.113Z,71.10
2019-01-23T12:40:18.128Z,71.59
2019-01-23T12:42:46.512Z,71.90
2019-01-23T12:45:20.105Z,71.83
2019-01-23T12:47:48.491Z,71.58
2019-01-23T12:50:20.213Z,71.15
2019-01-23T12:52:48.606Z,70.29
2019-01-23T12:55:17.155Z,70.32
2019-01-23T12:57:45.543Z,69.60
2019-01-23T13:00:19.867Z,69.18
2019-01-23T13:02:48.429Z,69.03
2019-01-23T13:05:19.453Z,69.50
2019-01-23T13:07:47.835Z,70.29
2019-01-23T13:10:18.253Z,70.39
2019-01-23T13:12:46.806Z,69.93
2019-01-23T13:15:20.055Z,70.84
2019-01-23T13:17:48.452Z,71.06
2019-01-23T13:20:18.866Z,70.61
2019-01-23T13:22:47.249Z,70.84
2019-01-23T13:25:18.098Z,70.35
2019-01-23T13:27:46.675Z,70.41
2019-01-23T13:30:20.242Z,70.35
2019-01-23T13:32:48.800Z,69.95
2019-01-23T13:35:22.422Z,69.48
2019-01-23T13:37:50.976Z,69.23
2019-01-23T13:40:22.190Z,69.17
2019-01-23T13:42:50.619Z,68.78
2019-01-23T13:45:19.127Z,68.81
2019-01-23T13:47:47.783Z,69.54
2019-01-23T13:50:16.327Z,70.29
2019-01-23T13:52:44.715Z,70.78
2019-01-23T13:55:16.200Z,70.80
2019-01-23T13:57:44.587Z,70.20
2019-01-23T14:00:18.629Z,69.55
2019-01-23T14:02:47.016Z,68.62
2019-01-23T14:05:15.740Z,68.12
2019-01-23T14:07:44.139Z,68.51
2019-01-23T14:10:17.539Z,68.91
2019-01-23T14:12:45.923Z,69.03
2019-01-23T14:15:23.160Z,69.12
2019-01-23T14:17:51.567Z,69.34
2019-01-23T14:20:19.956Z,70.62
2019-01-23T14:22:48.348Z,70.89
2019-01-23T14:25:17.477Z,70.25
2019-01-23T14:27:45.860Z,69.97
2019-01-23T14:30:26.373Z,70.14
2019-01-23T14:32:54.741Z,70.84
2019-01-23T14:35:23.122Z,70.64
2019-01-23T14:37:51.509Z,70.50
2019-01-23T14:40:19.889Z,70.41
2019-01-23T14:42:48.282Z,71.52
2019-01-23T14:45:18.429Z,72.10
2019-01-23T14:47:47.036Z,72.69
2019-01-23T14:50:20.032Z,72.84
2019-01-23T14:52:49.153Z,73.10
2019-01-23T14:55:17.597Z,73.23
2019-01-23T14:57:46.156Z,73.45
2019-01-23T15:00:22.986Z,73.95
2019-01-23T15:02:51.371Z,74.54
2019-01-23T15:05:19.925Z,74.97
2019-01-23T15:07:48.305Z,75.36
2019-01-23T15:10:28.023Z,75.83
2019-01-23T15:12:56.558Z,76.02
2019-01-23T15:15:25.080Z,76.57
2019-01-23T15:17:53.989Z,77.14
2019-01-23T15:20:28.307Z,77.43
2019-01-23T15:22:56.689Z,77.55
2019-01-23T15:25:25.076Z,77.46
2019-01-23T15:27:53.456Z,77.45
2019-01-23T15:30:23.685Z,77.60
2019-01-23T15:32:52.367Z,77.24
2019-01-23T15:35:22.074Z,77.17
2019-01-23T15:37:50.457Z,77.01
2019-01-23T15:40:21.730Z,77.19
2019-01-23T15:42:50.104Z,77.28
2019-01-23T15:45:18.557Z,77.03
2019-01-23T15:47:46.941Z,77.48
2019-01-23T15:50:18.168Z,77.62
2019-01-23T15:52:46.550Z,77.35
2019-01-23T15:55:17.477Z,76.96
2019-01-23T15:57:45.851Z,76.73
2019-01-23T16:00:54.163Z,77.04
2019-01-23T16:03:22.549Z,77.16
2019-01-23T16:06:10.187Z,77.42
2019-01-23T16:08:38.623Z,77.57
2019-01-23T16:13:54.454Z,77.36
2019-01-23T16:16:42.073Z,77.66
2019-01-23T16:19:10.481Z,77.96
2019-01-23T16:21:57.980Z,77.65
2019-01-23T16:24:26.368Z,77.52
2019-01-23T16:26:54.751Z,77.73
2019-01-23T16:29:23.141Z,77.49
2019-01-23T16:31:51.521Z,78.22
2019-01-23T16:34:19.908Z,78.34
2019-01-23T16:36:48.286Z,77.78
2019-01-23T16:39:16.680Z,77.49
2019-01-23T16:41:45.055Z,77.56
2019-01-23T16:44:13.616Z,77.77
2019-01-23T16:46:42.005Z,77.91
2019-01-23T16:49:10.439Z,77.71
2019-01-23T16:51:38.817Z,77.94
2019-01-23T16:54:07.202Z,78.56
2019-01-23T16:56:35.647Z,78.40
2019-01-23T16:59:04.577Z,78.34
2019-01-23T17:01:33.134Z,78.03
2019-01-23T17:04:01.458Z,77.78
2019-01-23T17:08:57.155Z,77.90
2019-01-23T17:11:25.544Z,77.32
2019-01-23T17:13:54.028Z,77.60
2019-01-23T17:16:22.445Z,77.50
2019-01-23T17:18:50.790Z,77.50
2019-01-23T17:21:19.176Z,77.20
2019-01-23T17:23:47.558Z,76.39
2019-01-23T17:26:15.944Z,75.71
2019-01-23T17:28:44.322Z,75.83
2019-01-23T17:31:12.707Z,76.16
2019-01-23T17:33:41.089Z,76.17
2019-01-23T17:36:09.476Z,76.42
2019-01-23T17:38:37.856Z,76.77
2019-01-23T17:41:06.245Z,76.36
2019-01-23T17:43:35.096Z,76.58
2019-01-23T17:46:03.478Z,76.73
2019-01-23T17:48:31.860Z,77.22
2019-01-23T17:51:00.250Z,77.28
2019-01-23T17:53:28.625Z,77.18
2019-01-23T17:55:57.016Z,77.30
2019-01-23T17:58:25.397Z,77.05
2019-01-23T18:00:56.654Z,76.90
2019-01-23T18:03:25.094Z,76.36
2019-01-23T18:05:53.547Z,76.15
2019-01-23T18:08:21.926Z,76.41
2019-01-23T18:10:50.318Z,76.76
2019-01-23T18:13:18.694Z,76.77
2019-01-23T18:15:47.091Z,76.26
2019-01-23T18:18:15.469Z,76.36
2019-01-23T18:20:43.940Z,76.68
2019-01-23T18:23:12.408Z,76.34
2019-01-23T18:25:40.804Z,76.02
2019-01-23T18:28:09.181Z,75.29
2019-01-23T18:30:43.220Z,75.53
2019-01-23T18:33:14.674Z,75.75
2019-01-23T18:35:58.242Z,75.82
2019-01-23T18:38:38.781Z,76.41
2019-01-23T18:41:36.084Z,76.81
2019-01-23T18:44:16.199Z,76.64
2019-01-23T18:47:05.600Z,76.49
2019-01-23T18:50:07.167Z,76.67
2019-01-23T18:52:35.616Z,76.24
2019-01-23T18:55:06.315Z,75.36
2019-01-23T18:57:34.847Z,74.63
2019-01-23T19:00:04.751Z,74.33
2019-01-23T19:02:33.283Z,74.70
2019-01-23T19:05:01.673Z,74.91
2019-01-23T19:07:30.226Z,74.36
2019-01-23T19:09:58.606Z,75.29
2019-01-23T19:12:27.050Z,75.00
2019-01-23T19:14:55.426Z,74.78
2019-01-23T19:17:23.883Z,75.55
2019-01-23T19:19:52.264Z,75.28
2019-01-23T19:22:20.883Z,75.02
2019-01-23T19:24:49.275Z,74.94
2019-01-23T19:27:17.669Z,75.30
2019-01-23T19:29:46.034Z,76.11
2019-01-23T19:34:42.904Z,75.20
2019-01-23T19:37:11.299Z,75.32
2019-01-23T19:39:39.665Z,75.66
2019-01-23T19:42:08.053Z,75.64
2019-01-23T19:44:36.467Z,75.24
2019-01-23T19:47:04.917Z,75.10
2019-01-23T19:49:33.331Z,75.40
2019-01-23T19:52:01.687Z,75.48
2019-01-23T19:54:30.073Z,75.34
2019-01-23T19:56:58.520Z,75.26
2019-01-23T19:59:26.922Z,75.21
2019-01-23T20:01:55.302Z,74.94
2019-01-23T20:04:23.753Z,75.27
2019-01-23T20:06:52.131Z,75.28
2019-01-23T20:09:20.518Z,75.19
2019-01-23T20:11:48.900Z,75.16
2019-01-23T20:14:17.543Z,75.63
2019-01-23T20:16:45.926Z,75.89
2019-01-23T20:19:14.317Z,75.99
2019-01-23T20:21:42.703Z,75.98
2019-01-23T20:24:11.083Z,76.20
2019-01-23T20:26:39.463Z,76.35
2019-01-23T20:29:08.117Z,76.15
2019-01-23T20:31:36.497Z,76.00
2019-01-23T20:34:05.618Z,76.46
2019-01-23T20:36:34.028Z,76.25
2019-01-23T20:39:02.413Z,75.79
2019-01-23T20:41:30.787Z,75.57
2019-01-23T20:43:59.185Z,75.20
2019-01-23T20:46:27.561Z,76.16
2019-01-23T20:48:55.971Z,76.37
2019-01-23T20:51:24.347Z,76.36
2019-01-23T20:53:52.736Z,76.39
2019-01-23T20:56:21.111Z,76.29
2019-01-23T20:58:49.501Z,76.55
2019-01-23T21:01:17.983Z,76.56
2019-01-23T21:03:46.472Z,76.45
2019-01-23T21:06:14.856Z,76.45
2019-01-23T21:08:43.245Z,76.73
2019-01-23T21:11:11.727Z,76.87
2019-01-23T21:13:40.191Z,76.95
2019-01-23T21:16:08.620Z,77.01
2019-01-23T21:18:37.012Z,76.79
2019-01-23T21:21:05.416Z,76.81
2019-01-23T21:23:33.798Z,77.14
2019-01-23T21:26:02.204Z,77.16
2019-01-23T21:28:30.654Z,76.77
2019-01-23T21:30:59.151Z,76.47
2019-01-23T21:33:27.829Z,75.92
2019-01-23T21:35:56.283Z,75.23
2019-01-23T21:38:24.669Z,75.94
2019-01-23T21:40:53.051Z,75.90
2019-01-23T21:43:21.569Z,76.46
2019-01-23T21:45:50.036Z,76.80
2019-01-23T21:48:18.428Z,76.96
2019-01-23T21:50:46.892Z,76.63
2019-01-23T21:53:15.346Z,76.37
2019-01-23T21:55:43.808Z,76.50
2019-01-23T21:58:12.205Z,76.48
2019-01-23T22:00:42.759Z,76.53
2019-01-23T22:03:11.994Z,76.87
2019-01-23T22:05:40.372Z,77.05
2019-01-23T22:08:09.018Z,76.95
2019-01-23T22:10:37.390Z,77.06
2019-01-23T22:13:05.864Z,77.17
2019-01-23T22:15:34.767Z,77.52
2019-01-23T22:18:03.691Z,78.05
2019-01-23T22:20:32.293Z,78.18
2019-01-23T22:23:00.745Z,77.81
2019-01-23T22:25:29.216Z,77.92
2019-01-23T22:28:06.738Z,77.65
2019-01-23T22:30:35.282Z,77.68
2019-01-23T22:33:03.812Z,77.43
2019-01-23T22:35:32.217Z,77.10
2019-01-23T22:38:00.637Z,77.06
2019-01-23T22:40:29.098Z,77.82
2019-01-23T22:42:57.544Z,78.09
2019-01-23T22:45:26.017Z,77.66
2019-01-23T22:47:54.505Z,77.41
2019-01-23T22:50:25.688Z,77.88
2019-01-23T22:52:54.069Z,78.23
2019-01-23T22:55:22.765Z,78.04
2019-01-23T22:57:51.215Z,78.50
2019-01-23T23:00:44.582Z,78.63
2019-01-23T23:03:14.573Z,78.98
2019-01-23T23:05:42.964Z,78.91
2019-01-23T23:08:11.336Z,78.76
2019-01-23T23:10:39.911Z,79.37
2019-01-23T23:13:08.362Z,79.70
2019-01-23T23:15:36.753Z,80.08
2019-01-23T23:18:05.606Z,79.80
2019-01-23T23:20:34.061Z,79.64
2019-01-23T23:23:02.464Z,79.91
2019-01-23T23:25:30.832Z,80.01
2019-01-23T23:27:59.224Z,79.97
2019-01-23T23:30:28.219Z,79.46
2019-01-23T23:32:56.609Z,79.39
2019-01-23T23:35:25.058Z,79.66
2019-01-23T23:37:53.456Z,79.95
2019-01-23T23:40:21.959Z,80.55
2019-01-23T23:42:50.717Z,80.36
2019-01-23T23:45:19.601Z,80.33
2019-01-23T23:47:47.987Z,80.21
2019-01-23T23:50:17.642Z,80.08
2019-01-23T23:52:46.073Z,79.93
2019-01-23T23:55:16.399Z,80.31
2019-01-23T23:57:45.328Z,80.39
